Time;durP1;ratioP1;P1;durP2;ratioP2;P2;SDS_P1;SDS_P2;PMS_P1;PMS_P2;Temp;Humidity;BMP_temperature;BMP_pressure;BME280_temperature;BME280_humidity;BME280_pressure;Samples;Min_cycle;Max_cycle;Signal;HPM_P1;HPM_P2
2020/12/16 00:02:14;;;;;;;64.45;38.75;;;9.40;95.40;;;;;;5012850;28;20092;-78
2020/12/16 00:04:39;;;;;;;64.45;36.17;;;9.10;95.40;;;;;;5013856;28;20033;-78
2020/12/16 00:07:05;;;;;;;62.38;38.90;;;8.20;95.10;;;;;;5013935;28;20057;-78
2020/12/16 00:09:31;;;;;;;65.60;37.80;;;8.60;95.20;;;;;;5012708;28;20041;-79
2020/12/16 00:12:17;;;;;;;68.97;39.45;;;8.20;95.10;;;;;;4985510;28;20509;-79
2020/12/16 00:14:44;;;;;;;67.32;40.15;;;8.20;95.10;;;;;;5013724;28;20042;-79
2020/12/16 00:17:29;;;;;;;68.40;40.50;;;8.10;95.20;;;;;;5012729;28;20478;-79
2020/12/16 00:19:55;;;;;;;66.50;39.65;;;8.20;95.20;;;;;;5013614;28;20034;-79
2020/12/16 00:22:41;;;;;;;;;;;8.10;95.10;;;;;;4999226;28;20041;-79
2020/12/16 00:25:09;;;;;;;62.17;39.00;;;8.00;94.90;;;;;;5012337;28;19917;-79
2020/12/16 00:27:35;;;;;;;65.35;38.92;;;8.00;95.10;;;;;;5013322;28;20030;-78
2020/12/16 00:30:02;;;;;;;71.55;39.67;;;8.20;95.20;;;;;;5012256;28;20044;-78
2020/12/16 00:32:28;;;;;;;61.95;38.83;;;8.00;95.20;;;;;;5013226;28;20054;-78
2020/12/16 00:34:57;;;;;;;64.30;39.40;;;8.00;95.10;;;;;;5012467;28;20377;-78
2020/12/16 00:37:23;;;;;;;60.75;37.35;;;8.00;95.40;;;;;;5013193;28;20096;-78
2020/12/16 00:39:48;;;;;;;60.30;37.47;;;8.20;95.20;;;;;;5013140;28;20038;-78
2020/12/16 00:42:17;;;;;;;60.88;38.70;;;7.90;95.10;;;;;;5013060;28;20081;-78
2020/12/16 00:44:43;;;;;;;65.40;40.13;;;7.90;95.10;;;;;;5013256;28;20041;-78
2020/12/16 00:47:09;;;;;;;69.93;39.67;;;8.80;95.40;;;;;;5011960;28;20063;-78
2020/12/16 00:49:54;;;;;;;65.88;40.33;;;7.90;95.20;;;;;;5012073;28;20052;-78
2020/12/16 00:52:20;;;;;;;64.25;40.33;;;8.00;95.30;;;;;;5012889;28;20537;-78
2020/12/16 00:54:46;;;;;;;73.63;40.78;;;7.90;95.30;;;;;;5010800;28;20034;-78
2020/12/16 00:57:12;;;;;;;71.43;41.28;;;7.90;95.30;;;;;;5012970;28;20038;-78
2020/12/16 00:59:38;;;;;;;78.63;43.42;;;8.10;95.50;;;;;;5009735;28;20125;-78
2020/12/16 01:02:06;;;;;;;88.10;46.20;;;8.00;95.50;;;;;;4995292;28;20187;-78
2020/12/16 01:04:52;;;;;;;97.18;47.40;;;8.00;95.50;;;;;;4998249;28;20081;-78
2020/12/16 01:07:18;;;;;;;91.30;44.92;;;8.10;95.60;;;;;;5012792;28;20061;-78
2020/12/16 01:09:44;;;;;;;103.18;47.08;;;8.10;95.60;;;;;;5013009;28;20117;-78
2020/12/16 01:12:09;;;;;;;95.93;47.25;;;8.10;95.60;;;;;;5012740;28;20042;-78
2020/12/16 01:14:35;;;;;;;105.28;45.97;;;8.20;95.60;;;;;;5012877;28;20042;-78
2020/12/16 01:17:01;;;;;;;92.30;45.08;;;8.10;95.50;;;;;;5012654;28;20041;-78
2020/12/16 01:19:26;;;;;;;89.22;45.58;;;8.20;95.50;;;;;;5012781;28;20034;-78
2020/12/16 01:21:52;;;;;;;93.43;45.25;;;8.10;95.50;;;;;;5012740;28;20034;-78
2020/12/16 01:24:44;;;;;;;101.85;44.63;;;8.10;95.60;;;;;;4999072;28;20046;-79
2020/12/16 01:27:13;;;;;;;116.25;46.05;;;8.10;95.50;;;;;;5012472;28;20521;-78
2020/12/16 01:29:38;;;;;;;99.82;43.55;;;8.10;95.50;;;;;;5012691;28;20441;-78
2020/12/16 01:32:04;;;;;;;96.63;43.88;;;8.10;95.60;;;;;;5011486;28;20073;-79
2020/12/16 01:34:50;;;;;;;87.47;43.10;;;8.10;95.60;;;;;;5011747;28;20080;-78
2020/12/16 01:37:16;;;;;;;127.65;43.10;;;8.20;95.60;;;;;;5012618;28;20065;-78
2020/12/16 01:40:03;;;;;;;80.60;40.45;;;8.10;95.50;;;;;;5011844;28;20437;-78
2020/12/16 01:42:29;;;;;;;78.65;41.92;;;8.10;95.50;;;;;;5012236;28;20061;-78
2020/12/16 01:45:20;;;;;;;100.15;42.88;;;8.10;95.60;;;;;;4998229;28;20086;-78
2020/12/16 01:47:46;;;;;;;102.03;42.45;;;8.50;95.70;;;;;;5012355;28;20033;-78
2020/12/16 01:50:12;;;;;;;83.85;41.03;;;8.10;95.60;;;;;;5012545;28;20038;-79
2020/12/16 01:52:40;;;;;;;83.05;38.95;;;8.10;95.50;;;;;;5012375;28;20121;-78
2020/12/16 01:55:07;;;;;;;85.82;40.40;;;8.10;95.50;;;;;;5012850;28;20066;-78
2020/12/16 01:57:58;;;;;;;89.95;41.65;;;8.10;95.50;;;;;;5012484;28;20053;-78
2020/12/16 02:00:25;;;;;;;93.65;41.28;;;8.10;95.50;;;;;;5013306;28;20034;-78
2020/12/16 02:03:17;;;;;;;84.00;38.40;;;8.50;95.60;;;;;;5011234;28;20517;-78
2020/12/16 02:05:45;;;;;;;81.22;39.70;;;8.10;95.50;;;;;;5011425;28;20095;-78
2020/12/16 02:08:13;;;;;;;95.88;37.67;;;8.10;95.70;;;;;;5015988;28;20088;-78
2020/12/16 02:10:40;;;;;;;79.07;36.92;;;8.00;95.40;;;;;;5015949;28;20037;-78
2020/12/16 02:13:07;;;;;;;99.07;34.03;;;8.10;95.40;;;;;;5015843;28;20062;-78
2020/12/16 02:15:52;;;;;;;71.10;33.80;;;8.10;95.40;;;;;;5015001;28;20402;-78
2020/12/16 02:18:38;;;;;;;86.18;34.03;;;8.00;95.30;;;;;;5014745;28;20645;-78
2020/12/16 02:21:04;;;;;;;68.63;33.50;;;8.00;95.30;;;;;;5015690;28;20045;-78
2020/12/16 02:23:32;;;;;;;61.35;35.05;;;8.00;95.30;;;;;;4998524;28;20050;-78
2020/12/16 02:25:58;;;;;;;62.33;33.75;;;7.90;95.20;;;;;;5015564;28;20041;-78
2020/12/16 02:28:24;;;;;;;65.07;32.63;;;8.20;95.20;;;;;;5014645;28;20065;-78
2020/12/16 02:30:50;;;;;;;70.57;34.00;;;7.90;95.20;;;;;;4997958;28;20054;-78
2020/12/16 02:33:16;;;;;;;59.13;33.33;;;7.90;95.20;;;;;;5015678;28;20060;-78
2020/12/16 02:35:41;;;;;;;67.13;33.65;;;7.90;95.20;;;;;;5015484;28;20121;-78
2020/12/16 02:38:27;;;;;;;63.08;32.00;;;8.00;95.20;;;;;;5014701;28;20096;-78
2020/12/16 02:40:53;;;;;;;67.18;32.80;;;8.30;95.20;;;;;;5014038;28;20045;-78
2020/12/16 02:43:19;;;;;;;64.68;34.63;;;8.00;95.10;;;;;;5015108;28;20053;-78
2020/12/16 02:46:04;;;;;;;64.60;33.08;;;7.90;95.20;;;;;;5000430;28;20069;-79
2020/12/16 02:48:30;;;;;;;75.88;35.38;;;8.90;95.40;;;;;;5015232;28;20038;-79
2020/12/16 02:50:56;;;;;;;67.03;34.05;;;7.90;95.50;;;;;;5015089;28;20042;-78
2020/12/16 02:53:42;;;;;;;60.00;31.67;;;8.20;95.30;;;;;;5014189;28;20092;-78
2020/12/16 02:56:27;;;;;;;82.75;33.92;;;7.90;95.20;;;;;;5013924;28;20038;-78
2020/12/16 02:58:53;;;;;;;63.65;31.92;;;7.90;95.20;;;;;;5015144;28;20077;-78
2020/12/16 03:01:39;;;;;;;67.65;31.38;;;7.90;95.30;;;;;;5013854;28;20042;-78
2020/12/16 03:04:05;;;;;;;62.45;31.15;;;7.90;95.30;;;;;;5015027;28;20049;-78
2020/12/16 03:06:52;;;;;;;59.13;31.25;;;7.90;95.20;;;;;;4986430;28;20040;-78
2020/12/16 03:09:20;;;;;;;53.30;29.45;;;8.40;95.30;;;;;;5015001;28;20037;-78
2020/12/16 03:11:53;;;;;;;63.33;30.25;;;7.80;95.30;;;;;;5014886;28;20041;-78
2020/12/16 03:14:19;;;;;;;69.07;30.58;;;7.80;95.40;;;;;;5014752;28;20092;-78
2020/12/16 03:16:45;;;;;;;59.65;31.65;;;7.80;95.40;;;;;;5030155;28;20107;-79
2020/12/16 03:19:12;;;;;;;65.75;30.58;;;7.80;95.40;;;;;;5012725;28;20095;-78
2020/12/16 03:21:58;;;;;;;67.78;31.80;;;7.80;95.40;;;;;;5013686;28;20112;-78
2020/12/16 03:24:43;;;;;;;;;;;7.80;95.40;;;;;;5041786;28;20076;-78
2020/12/16 03:27:10;;;;;;;;;;;7.80;95.30;;;;;;5047891;28;19921;-79
2020/12/16 03:29:35;;;;;;;57.28;28.42;;;7.80;95.40;;;;;;5050332;28;20288;-79
2020/12/16 03:32:01;;;;;;;56.35;27.83;;;8.00;95.60;;;;;;5030771;28;20092;-79
2020/12/16 03:34:27;;;;;;;72.82;29.08;;;7.80;95.50;;;;;;5014383;28;20393;-79
2020/12/16 03:36:53;;;;;;;62.47;30.65;;;8.50;95.70;;;;;;5013485;28;20038;-78
2020/12/16 03:39:39;;;;;;;67.13;29.42;;;7.80;95.50;;;;;;5041101;28;20128;-75
2020/12/16 03:42:04;;;;;;;63.60;29.65;;;7.80;95.50;;;;;;5029481;28;20128;-74
2020/12/16 03:44:30;;;;;;;57.55;27.90;;;7.80;95.50;;;;;;5013136;28;20057;-75
2020/12/16 03:46:56;;;;;;;63.08;26.80;;;7.80;95.60;;;;;;5012984;28;20061;-75
2020/12/16 03:49:22;;;;;;;61.35;27.73;;;7.80;95.40;;;;;;5014152;28;20116;-75
2020/12/16 03:51:52;;;;;;;63.60;28.40;;;7.80;95.50;;;;;;5012777;28;20029;-75
2020/12/16 03:54:18;;;;;;;60.67;26.88;;;7.80;95.50;;;;;;5014239;28;20375;-75
2020/12/16 03:56:43;;;;;;;59.08;27.40;;;7.80;95.50;;;;;;5012880;28;20060;-75
2020/12/16 03:59:09;;;;;;;64.03;28.75;;;7.80;95.60;;;;;;5014065;28;20120;-75
2020/12/16 04:01:55;;;;;;;71.75;27.48;;;8.70;95.80;;;;;;5012860;28;20073;-75
2020/12/16 04:04:41;;;;;;;60.42;27.05;;;7.80;95.60;;;;;;5013094;28;20100;-75
2020/12/16 04:07:06;;;;;;;56.47;27.05;;;7.90;95.60;;;;;;5013786;28;20037;-75
2020/12/16 04:09:32;;;;;;;64.15;28.25;;;7.80;95.60;;;;;;5029197;28;20049;-75
2020/12/16 04:11:58;;;;;;;77.03;28.38;;;7.80;95.60;;;;;;5012541;28;20045;-75
2020/12/16 04:14:44;;;;;;;60.78;27.45;;;7.90;95.60;;;;;;5040724;28;20136;-75
2020/12/16 04:17:32;;;;;;;70.18;28.95;;;8.80;95.90;;;;;;5040499;28;20042;-78
2020/12/16 04:19:59;;;;;;;60.83;27.98;;;7.90;95.60;;;;;;5013741;28;20041;-78
2020/12/16 04:22:25;;;;;;;64.53;28.40;;;7.90;95.60;;;;;;5013407;28;20508;-78
2020/12/16 04:24:50;;;;;;;62.55;27.88;;;8.30;95.70;;;;;;5013612;28;20030;-78
2020/12/16 04:27:17;;;;;;;62.72;28.25;;;7.90;95.60;;;;;;5012082;28;20076;-79
2020/12/16 04:30:04;;;;;;;63.75;29.00;;;8.00;95.60;;;;;;5040273;28;20045;-79
2020/12/16 04:32:29;;;;;;;76.15;29.67;;;8.00;95.60;;;;;;5012287;28;20044;-79
2020/12/16 04:35:15;;;;;;;70.50;28.50;;;8.00;95.60;;;;;;5040382;28;20141;-79
2020/12/16 04:37:41;;;;;;;67.63;29.25;;;8.00;95.60;;;;;;5028987;28;20109;-79
2020/12/16 04:40:06;;;;;;;74.28;29.60;;;8.00;95.60;;;;;;5013371;28;20457;-75
2020/12/16 04:42:32;;;;;;;81.50;28.83;;;8.00;95.60;;;;;;5013036;28;20581;-75
2020/12/16 04:44:58;;;;;;;65.57;29.10;;;8.00;95.60;;;;;;5013098;28;20065;-75
2020/12/16 04:47:24;;;;;;;68.60;28.10;;;8.00;95.60;;;;;;5013222;28;20041;-75
2020/12/16 04:50:09;;;;;;;74.85;29.83;;;8.10;95.90;;;;;;5039920;28;20069;-75
2020/12/16 04:52:38;;;;;;;60.03;26.45;;;8.30;95.70;;;;;;5013110;28;20096;-75
2020/12/16 04:55:04;;;;;;;67.10;28.25;;;8.00;95.60;;;;;;5012904;28;20038;-75
2020/12/16 04:57:51;;;;;;;70.97;28.35;;;8.00;95.70;;;;;;5012372;28;20052;-75
2020/12/16 05:00:40;;;;;;;58.83;26.85;;;8.00;95.60;;;;;;5039757;28;20037;-75
2020/12/16 05:03:28;;;;;;;65.68;28.65;;;8.00;95.60;;;;;;5011807;28;20574;-75
2020/12/16 05:06:34;;;;;;;65.03;29.17;;;8.00;95.50;;;;;;5039765;28;20046;-75
2020/12/16 05:09:09;;;;;;;71.72;28.33;;;8.00;95.50;;;;;;5044704;28;20398;-75
2020/12/16 05:11:55;;;;;;;60.05;26.20;;;8.80;95.70;;;;;;5039234;28;20045;-75
2020/12/16 05:14:41;;;;;;;56.45;25.98;;;8.00;95.40;;;;;;5039627;28;20042;-75
2020/12/16 05:17:06;;;;;;;53.85;24.33;;;7.90;95.40;;;;;;5028466;28;20046;-75
2020/12/16 05:19:34;;;;;;;46.88;22.70;;;8.20;95.50;;;;;;5011605;28;20088;-75
2020/12/16 05:22:20;;;;;;;43.08;22.83;;;7.90;95.40;;;;;;5011466;28;20406;-75
2020/12/16 05:24:49;;;;;;;52.00;24.20;;;7.90;95.40;;;;;;5012834;28;20038;-75
2020/12/16 05:27:23;;;;;;;48.40;23.48;;;7.80;95.40;;;;;;5011427;28;20489;-75
2020/12/16 05:30:09;;;;;;;48.78;22.80;;;8.30;95.50;;;;;;4998997;28;20085;-75
2020/12/16 05:32:36;;;;;;;42.13;22.73;;;7.80;95.40;;;;;;5027650;28;20489;-75
2020/12/16 05:35:25;;;;;;;50.30;22.50;;;7.70;95.30;;;;;;5011451;28;20057;-75
2020/12/16 05:37:57;;;;;;;44.92;21.73;;;8.20;95.50;;;;;;5011280;28;20040;-75
2020/12/16 05:40:43;;;;;;;46.08;21.70;;;7.70;95.50;;;;;;5039486;28;20429;-76
2020/12/16 05:43:20;;;;;;;46.97;23.48;;;7.70;95.60;;;;;;5016083;28;20108;-75
2020/12/16 05:45:45;;;;;;;45.35;22.45;;;8.80;95.80;;;;;;5016495;28;20060;-76
2020/12/16 05:48:31;;;;;;;46.63;22.65;;;7.80;95.80;;;;;;5029265;28;20096;-75
2020/12/16 05:50:59;;;;;;;52.35;22.35;;;7.60;95.60;;;;;;5016498;28;20037;-75
2020/12/16 05:53:29;;;;;;;48.58;22.35;;;7.80;95.60;;;;;;5016302;28;20042;-75
2020/12/16 05:56:15;;;;;;;44.65;22.33;;;7.90;95.60;;;;;;5043009;28;20125;-75
2020/12/16 05:58:40;;;;;;;48.42;21.73;;;8.60;95.90;;;;;;5015149;28;20110;-75
2020/12/16 06:01:06;;;;;;;45.72;22.52;;;8.00;95.80;;;;;;5031332;28;20041;-76
2020/12/16 06:03:37;;;;;;;48.78;22.58;;;7.80;95.60;;;;;;5016092;28;20073;-78
2020/12/16 06:06:23;;;;;;;45.63;21.95;;;7.80;95.70;;;;;;5015118;28;20046;-78
2020/12/16 06:08:49;;;;;;;47.60;21.75;;;7.80;95.60;;;;;;5016076;28;20029;-78
2020/12/16 06:11:16;;;;;;;53.65;22.88;;;7.80;95.60;;;;;;5014674;28;20042;-75
2020/12/16 06:13:46;;;;;;;54.15;24.02;;;8.10;95.70;;;;;;5030834;28;20041;-78
2020/12/16 06:16:12;;;;;;;56.17;23.95;;;7.80;95.60;;;;;;5016074;28;20417;-79
2020/12/16 06:18:45;;;;;;;49.08;23.65;;;7.80;95.60;;;;;;5031013;28;20061;-79
2020/12/16 06:21:13;;;;;;;50.35;23.67;;;7.80;95.70;;;;;;5014654;28;20038;-78
2020/12/16 06:23:40;;;;;;;50.83;24.05;;;7.80;95.70;;;;;;5015670;28;20038;-75
2020/12/16 06:26:09;;;;;;;65.95;25.55;;;7.90;95.70;;;;;;5015642;28;20033;-75
2020/12/16 06:28:59;;;;;;;61.00;26.50;;;7.90;95.70;;;;;;5028393;28;20076;-75
2020/12/16 06:31:49;;;;;;;61.88;26.92;;;7.90;95.70;;;;;;5014705;28;20049;-75
2020/12/16 06:34:15;;;;;;;67.05;26.25;;;7.90;95.70;;;;;;5015795;28;20412;-75
2020/12/16 06:36:42;;;;;;;69.10;27.40;;;7.90;95.70;;;;;;5015705;28;20443;-76
2020/12/16 06:39:21;;;;;;;65.07;26.20;;;7.90;95.70;;;;;;4998249;28;20104;-76
2020/12/16 06:41:56;;;;;;;65.15;25.45;;;8.00;95.70;;;;;;5014120;28;20066;-76
2020/12/16 06:44:22;;;;;;;60.42;25.20;;;8.30;95.70;;;;;;5014335;28;20042;-76
2020/12/16 06:46:52;;;;;;;62.58;26.67;;;8.00;95.60;;;;;;5014355;28;20119;-76
2020/12/16 06:49:39;;;;;;;63.25;26.00;;;8.00;95.60;;;;;;5042086;28;20116;-76
2020/12/16 06:52:12;;;;;;;57.05;25.05;;;8.70;95.80;;;;;;5029858;28;20062;-76
2020/12/16 06:54:41;;;;;;;53.17;24.33;;;8.10;95.50;;;;;;5014664;28;20041;-76
2020/12/16 06:57:12;;;;;;;58.75;24.58;;;8.10;95.60;;;;;;5014134;28;20042;-79
2020/12/16 07:00:00;;;;;;;63.22;25.73;;;8.10;95.50;;;;;;5014158;28;20424;-79
2020/12/16 07:02:35;;;;;;;70.70;25.10;;;8.10;95.50;;;;;;5013729;28;20482;-76
2020/12/16 07:05:05;;;;;;;53.03;22.75;;;8.00;95.40;;;;;;5014994;28;20034;-75
2020/12/16 07:07:44;;;;;;;47.95;21.35;;;8.60;95.60;;;;;;5014966;28;20034;-76
2020/12/16 07:10:36;;;;;;;41.85;20.58;;;8.10;95.50;;;;;;5013700;28;20124;-76
2020/12/16 07:13:19;;;;;;;42.17;19.95;;;8.10;95.50;;;;;;5014929;28;20045;-76
2020/12/16 07:15:53;;;;;;;49.33;20.30;;;8.10;95.50;;;;;;5013600;28;20030;-76
2020/12/16 07:18:38;;;;;;;46.53;20.10;;;8.10;95.60;;;;;;5013582;28;20065;-76
2020/12/16 07:21:07;;;;;;;50.05;20.23;;;8.10;95.50;;;;;;5013487;28;20042;-76
2020/12/16 07:24:07;;;;;;;46.00;20.05;;;8.10;95.50;;;;;;5027548;28;20038;-79
2020/12/16 07:26:55;;;;;;;45.95;21.20;;;8.10;95.40;;;;;;5027440;28;20057;-79
2020/12/16 07:29:27;;;;;;;48.55;20.83;;;8.10;95.40;;;;;;5014395;28;20030;-76
2020/12/16 07:32:13;;;;;;;47.60;21.02;;;8.10;95.30;;;;;;5013185;28;20133;-76
2020/12/16 07:34:42;;;;;;;45.03;20.50;;;8.00;95.30;;;;;;5014424;28;20036;-76
2020/12/16 07:37:08;;;;;;;49.83;22.13;;;8.00;95.50;;;;;;5014565;28;20041;-76
2020/12/16 07:39:52;;;;;;;45.15;20.67;;;7.90;95.40;;;;;;5046632;28;20371;-79
2020/12/16 07:42:30;;;;;;;45.63;21.63;;;7.90;95.40;;;;;;5014372;28;20053;-76
2020/12/16 07:44:57;;;;;;;49.00;22.10;;;7.90;95.40;;;;;;5013881;28;20038;-79
2020/12/16 07:47:24;;;;;;;48.28;20.67;;;7.80;95.40;;;;;;5029545;28;20038;-76
2020/12/16 07:49:49;;;;;;;46.92;22.23;;;7.80;95.40;;;;;;5014070;28;20390;-76
2020/12/16 07:52:35;;;;;;;41.67;19.85;;;7.80;95.40;;;;;;5013038;28;20049;-76
2020/12/16 07:55:24;;;;;;;45.42;20.73;;;7.80;95.50;;;;;;5040861;28;20081;-76
2020/12/16 07:57:50;;;;;;;48.70;20.45;;;7.90;95.50;;;;;;5012749;28;20036;-78
2020/12/16 08:00:36;;;;;;;51.38;21.25;;;7.90;95.60;;;;;;5040734;28;20034;-75
2020/12/16 08:03:02;;;;;;;50.85;20.27;;;7.90;95.60;;;;;;5012601;28;20116;-75
2020/12/16 08:05:58;;;;;;;;;;;8.70;95.80;;;;;;5027127;28;20046;-75
2020/12/16 08:08:24;;;;;;;35.47;19.80;;;8.00;95.30;;;;;;5013916;28;19917;-79
2020/12/16 08:11:17;;;;;;;42.80;19.05;;;8.00;95.50;;;;;;5040477;28;20568;-79
2020/12/16 08:13:43;;;;;;;44.20;20.55;;;8.00;95.50;;;;;;5013457;28;20092;-79
2020/12/16 08:16:10;;;;;;;42.53;20.00;;;8.10;95.50;;;;;;5013754;28;20069;-79
2020/12/16 08:18:38;;;;;;;42.85;19.50;;;8.10;95.50;;;;;;5012405;28;20038;-79
2020/12/16 08:21:19;;;;;;;44.88;19.65;;;8.10;95.50;;;;;;5012510;28;20048;-79
2020/12/16 08:23:45;;;;;;;40.65;20.40;;;8.10;95.50;;;;;;5013573;28;20109;-79
2020/12/16 08:26:12;;;;;;;44.67;20.40;;;9.30;95.70;;;;;;5013563;28;20040;-76
2020/12/16 08:28:40;;;;;;;47.40;21.27;;;8.10;95.50;;;;;;5028433;28;20038;-76
2020/12/16 08:31:06;;;;;;;46.13;20.90;;;8.20;95.60;;;;;;5028534;28;20493;-76
2020/12/16 08:33:37;;;;;;;45.00;21.42;;;8.20;95.50;;;;;;5045386;28;20128;-75
2020/12/16 08:36:26;;;;;;;43.20;19.85;;;9.10;95.70;;;;;;5039612;28;20041;-75
2020/12/16 08:38:53;;;;;;;40.17;21.20;;;9.40;95.70;;;;;;5013394;28;20402;-76
2020/12/16 08:41:43;;;;;;;47.17;21.63;;;9.30;95.70;;;;;;5039740;28;20556;-79
2020/12/16 08:44:21;;;;;;;45.20;21.17;;;8.50;95.50;;;;;;5013385;28;20050;-79
2020/12/16 08:46:47;;;;;;;48.72;22.60;;;8.30;95.40;;;;;;5013176;28;20033;-76
2020/12/16 08:49:33;;;;;;;48.53;21.70;;;8.30;95.40;;;;;;5039485;28;20538;-76
2020/12/16 08:51:59;;;;;;;49.13;21.90;;;8.30;95.40;;;;;;5013193;28;20137;-76
2020/12/16 08:54:27;;;;;;;47.20;23.27;;;8.30;95.40;;;;;;5028054;28;20067;-76
2020/12/16 08:56:57;;;;;;;48.88;23.48;;;8.30;95.20;;;;;;5013151;28;20120;-76
2020/12/16 08:59:25;;;;;;;58.50;25.05;;;8.30;95.20;;;;;;5013271;28;20041;-76
2020/12/16 09:02:06;;;;;;;54.42;24.92;;;8.30;95.30;;;;;;5012697;28;20393;-76
2020/12/16 09:04:36;;;;;;;50.08;25.02;;;8.30;95.40;;;;;;5011879;28;20045;-76
2020/12/16 09:07:10;;;;;;;49.83;25.70;;;8.30;95.30;;;;;;5012755;28;20042;-76
2020/12/16 09:09:41;;;;;;;54.33;25.60;;;8.30;95.30;;;;;;5012868;28;20040;-77
2020/12/16 09:12:12;;;;;;;58.80;26.27;;;8.40;95.30;;;;;;5012765;28;20125;-76
2020/12/16 09:15:03;;;;;;;53.22;26.40;;;8.40;95.20;;;;;;5039279;28;20045;-76
2020/12/16 09:17:31;;;;;;;56.90;26.55;;;9.00;95.40;;;;;;5011258;28;20034;-80
2020/12/16 09:20:00;;;;;;;55.28;26.92;;;8.40;95.20;;;;;;5012704;28;20466;-76
2020/12/16 09:22:52;;;;;;;53.10;27.10;;;9.10;95.50;;;;;;5039209;28;20045;-79
2020/12/16 09:25:20;;;;;;;51.65;27.65;;;9.00;95.30;;;;;;5026878;28;20034;-79
2020/12/16 09:28:06;;;;;;;60.47;28.80;;;8.40;95.20;;;;;;5039208;28;20049;-79
2020/12/16 09:30:34;;;;;;;58.40;28.33;;;8.50;95.30;;;;;;5011570;28;20037;-79
2020/12/16 09:33:19;;;;;;;60.33;29.20;;;9.80;95.60;;;;;;5025291;28;20078;-79
2020/12/16 09:35:53;;;;;;;57.30;28.52;;;8.50;95.10;;;;;;5012477;28;20117;-79
2020/12/16 09:38:38;;;;;;;50.30;28.17;;;8.50;95.20;;;;;;5011380;28;20048;-79
2020/12/16 09:41:04;;;;;;;58.30;31.48;;;8.50;95.20;;;;;;5010987;28;20042;-79
2020/12/16 09:43:38;;;;;;;54.85;29.50;;;8.50;95.20;;;;;;5012170;28;20052;-79
2020/12/16 09:46:25;;;;;;;58.05;30.27;;;8.50;95.20;;;;;;5025439;28;20448;-79
2020/12/16 09:49:10;;;;;;;57.65;30.33;;;8.60;95.20;;;;;;5039367;28;20050;-79
2020/12/16 09:51:37;;;;;;;65.78;31.00;;;9.30;95.20;;;;;;5027731;28;20504;-79
2020/12/16 09:54:03;;;;;;;60.42;30.20;;;8.60;95.30;;;;;;5027699;28;20060;-76
2020/12/16 09:56:28;;;;;;;64.90;32.45;;;9.80;95.70;;;;;;5012379;28;20038;-79
2020/12/16 09:58:54;;;;;;;66.53;33.13;;;9.40;95.40;;;;;;5011303;28;20030;-79
2020/12/16 10:01:21;;;;;;;66.07;33.70;;;8.60;95.10;;;;;;5012358;28;20042;-79
2020/12/16 10:04:07;;;;;;;68.60;34.90;;;8.60;95.10;;;;;;5039408;28;20053;-79
2020/12/16 10:06:32;;;;;;;66.80;35.15;;;8.80;95.10;;;;;;5027394;28;20030;-76
2020/12/16 10:08:58;;;;;;;69.53;35.53;;;9.30;95.20;;;;;;5012527;28;20038;-76
2020/12/16 10:11:24;;;;;;;73.65;35.08;;;8.50;94.90;;;;;;5027570;28;20434;-76
2020/12/16 10:13:50;;;;;;;70.63;34.83;;;8.40;94.90;;;;;;5027551;28;20050;-79
2020/12/16 10:16:15;;;;;;;67.20;35.42;;;8.40;95.00;;;;;;5012400;28;20087;-79
2020/12/16 10:18:41;;;;;;;70.35;36.35;;;9.40;95.40;;;;;;5012254;28;20030;-79
2020/12/16 10:21:27;;;;;;;73.70;36.25;;;8.40;95.20;;;;;;5038792;28;20494;-79
2020/12/16 10:24:13;;;;;;;71.72;33.25;;;8.40;95.10;;;;;;5039198;28;20038;-76
2020/12/16 10:27:01;;;;;;;;;;;9.20;95.30;;;;;;5026152;28;20095;-76
2020/12/16 10:29:28;;;;;;;65.53;30.73;;;8.40;94.90;;;;;;5015554;28;19941;-76
2020/12/16 10:32:15;;;;;;;66.00;31.88;;;8.40;95.10;;;;;;5042299;28;20494;-79
2020/12/16 10:34:41;;;;;;;52.92;28.30;;;8.40;95.00;;;;;;5014475;28;20389;-79
2020/12/16 10:37:27;;;;;;;57.92;30.05;;;8.50;95.20;;;;;;5014742;28;20104;-79
2020/12/16 10:39:54;;;;;;;52.97;28.80;;;8.50;95.00;;;;;;5015552;28;20121;-76
2020/12/16 10:42:22;;;;;;;59.90;30.70;;;8.80;95.00;;;;;;5015332;28;20050;-76
2020/12/16 10:44:51;;;;;;;59.15;31.00;;;8.60;95.00;;;;;;5015343;28;20061;-76
2020/12/16 10:47:17;;;;;;;59.50;30.58;;;8.60;95.00;;;;;;5014422;28;20041;-76
2020/12/16 10:50:03;;;;;;;50.63;29.17;;;8.50;94.80;;;;;;5041918;28;20048;-76
2020/12/16 10:52:29;;;;;;;55.38;30.33;;;8.50;94.80;;;;;;5030672;28;20046;-76
2020/12/16 10:54:55;;;;;;;55.88;30.45;;;9.10;95.20;;;;;;5015057;28;20053;-79
2020/12/16 10:57:41;;;;;;;57.40;30.25;;;8.60;95.00;;;;;;5041806;28;20042;-79
2020/12/16 11:00:26;;;;;;;64.25;32.45;;;8.70;95.10;;;;;;5041908;28;20044;-79
2020/12/16 11:02:54;;;;;;;70.55;35.28;;;9.40;95.20;;;;;;5015087;28;20421;-79
2020/12/16 11:05:40;;;;;;;68.63;35.22;;;8.70;94.90;;;;;;5014426;28;20076;-79
2020/12/16 11:08:29;;;;;;;73.22;36.58;;;8.60;94.90;;;;;;5041754;28;20042;-79
2020/12/16 11:10:55;;;;;;;70.55;35.67;;;8.60;94.90;;;;;;5030340;28;20038;-79
2020/12/16 11:13:40;;;;;;;75.07;35.90;;;8.60;95.00;;;;;;5041367;28;20505;-76
2020/12/16 11:16:06;;;;;;;77.38;37.05;;;9.00;95.10;;;;;;5014201;28;20041;-79
2020/12/16 11:18:52;;;;;;;75.47;36.55;;;8.50;95.10;;;;;;5012981;28;20092;-79
2020/12/16 11:21:20;;;;;;;71.82;36.75;;;8.50;95.00;;;;;;5007659;28;20038;-78
2020/12/16 11:23:48;;;;;;;75.40;37.80;;;8.60;95.10;;;;;;5014516;28;20030;-84
2020/12/16 11:26:14;;;;;;;72.07;36.58;;;8.60;95.10;;;;;;5013227;28;20104;-83
2020/12/16 11:28:40;;;;;;;73.07;38.55;;;9.20;95.20;;;;;;5014277;28;20042;-83
2020/12/16 11:31:06;;;;;;;79.13;36.33;;;8.60;95.10;;;;;;5014104;28;20034;-82
2020/12/16 11:33:32;;;;;;;66.95;35.80;;;8.50;94.80;;;;;;5014938;28;20041;-82
2020/12/16 11:35:58;;;;;;;71.57;36.17;;;8.50;94.90;;;;;;5012860;28;20066;-83
2020/12/16 11:38:29;;;;;;;68.95;36.38;;;8.50;94.90;;;;;;5013584;28;20038;-81
2020/12/16 11:40:55;;;;;;;70.53;35.83;;;8.60;94.90;;;;;;5029626;28;20544;-81
2020/12/16 11:43:21;;;;;;;68.75;35.67;;;8.40;94.90;;;;;;5014256;28;20056;-76
2020/12/16 11:45:47;;;;;;;66.80;35.88;;;8.40;94.90;;;;;;5014080;28;20478;-77
2020/12/16 11:48:15;;;;;;;64.88;36.33;;;8.40;94.90;;;;;;5012683;28;20394;-77
2020/12/16 11:50:41;;;;;;;66.53;36.13;;;8.40;94.90;;;;;;4996296;28;20042;-77
2020/12/16 11:53:07;;;;;;;62.08;34.53;;;8.40;94.90;;;;;;5012797;28;20042;-84
2020/12/16 11:55:33;;;;;;;66.13;36.33;;;9.30;95.10;;;;;;5012877;28;20037;-85
2020/12/16 11:58:24;;;;;;;67.28;35.53;;;8.40;94.80;;;;;;4998530;28;20433;-76
2020/12/16 12:01:11;;;;;;;61.25;33.58;;;8.40;94.80;;;;;;5012094;28;20061;-83
2020/12/16 12:03:37;;;;;;;64.05;34.20;;;8.40;94.80;;;;;;5012874;28;20083;-82
2020/12/16 12:06:07;;;;;;;64.25;35.35;;;8.20;94.70;;;;;;5012835;28;20113;-79
2020/12/16 12:08:33;;;;;;;60.33;34.72;;;8.20;94.80;;;;;;5013669;28;20030;-80
2020/12/16 12:10:59;;;;;;;66.13;34.33;;;8.90;95.10;;;;;;5013791;28;20034;-80
2020/12/16 12:13:25;;;;;;;66.80;35.67;;;8.30;95.00;;;;;;5027174;28;20045;-77
2020/12/16 12:16:23;;;;;;;65.00;36.22;;;8.20;95.00;;;;;;5012094;28;20048;-78
2020/12/16 12:18:49;;;;;;;61.30;34.05;;;8.10;94.90;;;;;;5012148;28;20080;-84
2020/12/16 12:21:18;;;;;;;62.95;33.25;;;8.70;95.10;;;;;;5028806;28;20478;-77
2020/12/16 12:23:44;;;;;;;61.13;34.50;;;8.30;94.90;;;;;;5028696;28;20407;-77
2020/12/16 12:26:10;;;;;;;63.58;35.72;;;8.30;94.90;;;;;;5011797;28;20482;-83
2020/12/16 12:28:36;;;;;;;63.92;36.22;;;8.30;94.90;;;;;;5012142;28;20056;-77
2020/12/16 12:31:02;;;;;;;65.80;35.38;;;8.30;94.90;;;;;;5013350;28;20108;-78
2020/12/16 12:33:48;;;;;;;61.17;35.05;;;8.30;94.90;;;;;;5012719;28;20049;-83
2020/12/16 12:36:34;;;;;;;66.95;37.58;;;8.30;94.80;;;;;;5026030;28;20073;-78
2020/12/16 12:39:00;;;;;;;64.47;36.42;;;8.20;94.80;;;;;;5013415;28;20037;-83
2020/12/16 12:41:29;;;;;;;67.65;38.50;;;8.30;94.80;;;;;;5028306;28;20033;-82
2020/12/16 12:44:18;;;;;;;68.18;37.88;;;8.20;94.80;;;;;;5039963;28;20114;-83
2020/12/16 12:47:04;;;;;;;66.60;38.20;;;8.20;94.80;;;;;;5012242;28;20527;-83
2020/12/16 12:49:30;;;;;;;69.22;39.05;;;8.30;94.90;;;;;;5013334;28;20060;-83
2020/12/16 12:51:56;;;;;;;69.25;39.53;;;8.30;94.90;;;;;;5028416;28;20045;-83
2020/12/16 12:54:41;;;;;;;72.95;39.55;;;8.40;94.90;;;;;;5012143;28;20116;-83
2020/12/16 12:57:10;;;;;;;68.57;38.38;;;8.50;95.00;;;;;;5011446;28;20030;-79
2020/12/16 12:59:40;;;;;;;67.38;38.80;;;8.40;95.00;;;;;;5045375;28;20053;-82
2020/12/16 13:02:33;;;;;;;66.63;38.53;;;8.50;94.80;;;;;;5038216;28;20190;-87
2020/12/16 13:04:59;;;;;;;62.88;37.15;;;8.60;94.70;;;;;;5011264;28;20479;-78
2020/12/16 13:07:46;;;;;;;66.45;38.08;;;9.30;94.90;;;;;;5011601;28;20078;-79
2020/12/16 13:10:32;;;;;;;67.30;39.05;;;9.20;94.60;;;;;;5039661;28;20242;-79